Time;durP1;ratioP1;P1;durP2;ratioP2;P2;SDS_P1;SDS_P2;PMS_P1;PMS_P2;Temp;Humidity;BMP_temperature;BMP_pressure;BME280_temperature;BME280_humidity;BME280_pressure;Samples;Min_cycle;Max_cycle;Signal;HPM_P1;HPM_P2
2021/05/29 00:00:53;;;;;;;;;;;13.50;81.10;;;;;;5027837;28;20471;-67
2021/05/29 00:03:21;;;;;;;16.13;1.42;;;13.60;81.10;;;;;;5027102;28;20440;-69
2021/05/29 00:05:47;;;;;;;3.20;1.40;;;13.60;80.40;;;;;;5027474;28;20030;-68
2021/05/29 00:08:12;;;;;;;;;;;13.60;80.20;;;;;;5026718;28;20075;-68
2021/05/29 00:10:42;;;;;;;1.75;0.88;;;13.60;80.60;;;;;;5027136;28;19909;-68
2021/05/29 00:13:08;;;;;;;2.58;1.15;;;13.70;81.10;;;;;;5027257;28;20422;-68
2021/05/29 00:15:34;;;;;;;;;;;13.70;81.10;;;;;;5027363;28;20024;-68
2021/05/29 00:18:00;;;;;;;3.53;1.83;;;13.70;81.80;;;;;;5027286;28;19917;-68
2021/05/29 00:20:26;;;;;;;;;;;13.70;81.20;;;;;;5027677;28;20029;-68
2021/05/29 00:22:51;;;;;;;3.85;1.98;;;13.80;81.30;;;;;;5027089;28;19948;-68
2021/05/29 00:25:17;;;;;;;;;;;13.80;80.90;;;;;;5026820;28;20037;-68
2021/05/29 00:27:43;;;;;;;4.05;1.00;;;13.80;80.90;;;;;;5027012;28;19935;-68
2021/05/29 00:30:13;;;;;;;2.30;0.90;;;13.80;80.10;;;;;;5027009;28;20045;-68
2021/05/29 00:32:39;;;;;;;3.10;0.85;;;13.80;80.80;;;;;;5026588;28;20033;-69
2021/05/29 00:35:06;;;;;;;3.25;1.02;;;13.80;80.70;;;;;;5026320;28;20045;-69
2021/05/29 00:37:31;;;;;;;5.18;1.27;;;13.80;80.70;;;;;;5027071;28;20116;-69
2021/05/29 00:39:57;;;;;;;;;;;13.80;80.80;;;;;;5026970;28;20120;-69
2021/05/29 00:42:23;;;;;;;2.05;1.02;;;13.80;81.40;;;;;;5026617;28;19908;-69
2021/05/29 00:44:49;;;;;;;;;;;13.80;80.90;;;;;;5027132;28;20041;-67
2021/05/29 00:47:29;;;;;;;2.40;0.80;;;13.80;81.10;;;;;;5026802;28;19919;-68
2021/05/29 00:50:01;;;;;;;2.13;0.90;;;13.80;80.60;;;;;;5026758;28;20048;-69
2021/05/29 00:52:27;;;;;;;4.22;0.70;;;13.80;80.30;;;;;;5025355;28;20531;-69
2021/05/29 00:54:53;;;;;;;;;;;13.90;80.30;;;;;;5026587;28;20036;-68
2021/05/29 00:57:19;;;;;;;2.30;0.68;;;13.90;81.10;;;;;;5026416;28;20372;-69
2021/05/29 00:59:44;;;;;;;1.60;0.98;;;13.90;80.60;;;;;;5026366;28;20025;-69
2021/05/29 01:02:12;;;;;;;;;;;14.00;80.90;;;;;;5025622;28;20421;-69
2021/05/29 01:04:39;;;;;;;2.40;0.90;;;14.00;80.90;;;;;;5026492;28;19920;-69
2021/05/29 01:07:10;;;;;;;1.65;0.88;;;14.10;79.10;;;;;;5025099;28;20041;-70
2021/05/29 01:09:44;;;;;;;4.35;0.90;;;14.10;78.30;;;;;;5025819;28;20028;-68
2021/05/29 01:12:13;;;;;;;3.05;1.00;;;14.10;78.30;;;;;;5026455;28;20036;-68
2021/05/29 01:14:46;;;;;;;2.25;0.90;;;14.10;78.20;;;;;;5026349;28;20041;-68
2021/05/29 01:17:12;;;;;;;9.30;0.88;;;14.10;78.50;;;;;;5026411;28;20034;-68
2021/05/29 01:19:38;;;;;;;2.53;0.77;;;14.20;78.60;;;;;;5025936;28;20044;-68
2021/05/29 01:22:08;;;;;;;;;;;14.20;78.60;;;;;;5026873;28;20398;-68
2021/05/29 01:24:34;;;;;;;4.72;1.10;;;14.20;78.60;;;;;;5026060;28;20506;-67
2021/05/29 01:26:59;;;;;;;;;;;14.20;78.50;;;;;;5026300;28;20573;-69
2021/05/29 01:29:25;;;;;;;2.85;0.88;;;14.20;78.50;;;;;;5026108;28;20368;-69
2021/05/29 01:32:00;;;;;;;;;;;14.20;78.20;;;;;;5026390;28;20044;-67
2021/05/29 01:34:29;;;;;;;4.70;1.40;;;14.20;78.30;;;;;;5024811;28;20399;-69
2021/05/29 01:36:55;;;;;;;6.57;1.38;;;14.10;79.20;;;;;;5025775;28;20053;-67
2021/05/29 01:39:20;;;;;;;;;;;14.10;79.30;;;;;;5026071;28;20061;-68
2021/05/29 01:41:46;;;;;;;1.55;0.75;;;14.00;79.30;;;;;;5026144;28;20494;-68
2021/05/29 01:44:13;;;;;;;5.15;1.52;;;13.90;79.80;;;;;;5025779;28;20084;-68
2021/05/29 01:46:38;;;;;;;3.60;1.23;;;13.90;80.40;;;;;;5025457;28;20030;-68
2021/05/29 01:49:04;;;;;;;;;;;14.00;80.50;;;;;;5024645;28;20052;-69
2021/05/29 01:51:30;;;;;;;2.13;0.80;;;13.90;80.10;;;;;;5026021;28;19954;-68
2021/05/29 01:53:55;;;;;;;;;;;13.90;79.50;;;;;;5026304;28;20042;-67
2021/05/29 01:56:21;;;;;;;2.53;1.00;;;13.90;77.80;;;;;;5025340;28;19959;-67
2021/05/29 01:58:47;;;;;;;;;;;13.80;77.80;;;;;;5026165;28;20038;-67
2021/05/29 02:01:15;;;;;;;6.05;1.55;;;13.80;78.00;;;;;;5025938;28;19952;-68
2021/05/29 02:03:44;;;;;;;2.25;0.90;;;13.80;78.30;;;;;;5025483;28;20021;-68
2021/05/29 02:06:14;;;;;;;3.00;1.00;;;13.80;79.00;;;;;;5025893;28;20076;-67
2021/05/29 02:08:40;;;;;;;1.52;0.73;;;13.80;79.90;;;;;;5025435;28;20026;-68
2021/05/29 02:11:05;;;;;;;;;;;13.70;80.80;;;;;;5025314;28;20033;-68
2021/05/29 02:13:32;;;;;;;5.45;1.10;;;13.70;81.40;;;;;;5025292;28;20059;-68
2021/05/29 02:15:58;;;;;;;4.80;1.50;;;13.70;80.90;;;;;;5025532;28;20041;-68
2021/05/29 02:18:24;;;;;;;3.15;0.93;;;13.60;80.60;;;;;;5025297;28;20033;-67
2021/05/29 02:20:50;;;;;;;;;;;13.60;80.50;;;;;;5026183;28;20064;-67
2021/05/29 02:23:20;;;;;;;4.05;0.82;;;13.60;80.40;;;;;;5025391;28;19909;-67
2021/05/29 02:25:47;;;;;;;2.22;0.90;;;13.60;79.70;;;;;;5025348;28;20061;-67
2021/05/29 02:28:12;;;;;;;2.15;0.90;;;13.60;79.80;;;;;;5024285;28;20025;-68
2021/05/29 02:30:39;;;;;;;;;;;13.60;80.10;;;;;;5026584;28;20560;-68
2021/05/29 02:33:05;;;;;;;2.90;0.90;;;13.60;80.50;;;;;;5028670;28;19913;-68
2021/05/29 02:35:32;;;;;;;3.60;1.40;;;13.60;80.10;;;;;;5029215;28;20374;-68
2021/05/29 02:37:58;;;;;;;4.00;1.17;;;13.60;80.30;;;;;;5029254;28;20113;-67
2021/05/29 02:40:23;;;;;;;;;;;13.60;80.30;;;;;;5029313;28;20037;-68
2021/05/29 02:42:50;;;;;;;3.53;0.98;;;13.60;80.50;;;;;;5028568;28;19909;-68
2021/05/29 02:45:16;;;;;;;1.92;1.10;;;13.60;80.30;;;;;;5029134;28;20300;-67
2021/05/29 02:47:41;;;;;;;;;;;13.70;80.10;;;;;;5029387;28;20371;-67
2021/05/29 02:50:08;;;;;;;1.92;0.95;;;13.60;80.00;;;;;;5028315;28;19963;-68
2021/05/29 02:52:34;;;;;;;1.88;0.95;;;13.60;80.40;;;;;;5028674;28;20021;-68
2021/05/29 02:55:00;;;;;;;;;;;13.60;80.10;;;;;;5028251;28;20034;-68
2021/05/29 02:57:25;;;;;;;4.88;1.38;;;13.60;81.40;;;;;;5027572;28;20000;-68
2021/05/29 02:59:51;;;;;;;;;;;13.70;81.10;;;;;;5029123;28;20025;-68
2021/05/29 03:02:17;;;;;;;3.20;1.10;;;13.70;81.00;;;;;;5028415;28;19916;-67
2021/05/29 03:04:42;;;;;;;;;;;13.60;80.30;;;;;;5029146;28;20036;-68
2021/05/29 03:07:08;;;;;;;4.22;1.30;;;13.60;79.50;;;;;;5028065;28;20064;-68
2021/05/29 03:09:34;;;;;;;;;;;13.60;79.80;;;;;;5028356;28;20029;-66
2021/05/29 03:12:01;;;;;;;2.20;0.98;;;13.60;81.40;;;;;;5028774;28;19995;-68
2021/05/29 03:14:27;;;;;;;3.17;1.13;;;13.60;81.10;;;;;;5027912;28;20051;-68
2021/05/29 03:16:53;;;;;;;;;;;13.60;81.70;;;;;;5028841;28;20045;-68
2021/05/29 03:19:19;;;;;;;4.45;1.15;;;13.70;81.50;;;;;;5027063;28;19913;-67
2021/05/29 03:21:45;;;;;;;2.17;1.20;;;13.70;82.10;;;;;;5028675;28;20021;-68
2021/05/29 03:24:11;;;;;;;;;;;13.70;81.50;;;;;;5028505;28;20548;-68
2021/05/29 03:26:37;;;;;;;6.55;2.15;;;13.70;81.60;;;;;;5028447;28;19912;-68
2021/05/29 03:29:03;;;;;;;;;;;13.80;81.30;;;;;;5028242;28;20725;-67
2021/05/29 03:31:29;;;;;;;7.22;1.17;;;13.70;80.60;;;;;;5027832;28;19909;-68
2021/05/29 03:33:54;;;;;;;;;;;13.70;79.70;;;;;;5010875;28;20079;-68
2021/05/29 03:36:20;;;;;;;5.50;1.48;;;13.70;79.70;;;;;;5027920;28;19909;-68
2021/05/29 03:38:46;;;;;;;;;;;13.80;80.30;;;;;;5027547;28;20414;-68
2021/05/29 03:41:11;;;;;;;3.20;0.90;;;13.80;80.20;;;;;;5026483;28;19909;-68
2021/05/29 03:43:37;;;;;;;;;;;13.80;80.20;;;;;;5027530;28;20033;-67
2021/05/29 03:46:04;;;;;;;3.08;1.33;;;13.80;79.60;;;;;;5026088;28;19916;-68
2021/05/29 03:48:30;;;;;;;7.10;1.27;;;13.90;79.40;;;;;;5027853;28;20018;-68
2021/05/29 03:50:55;;;;;;;;;;;13.90;79.30;;;;;;5026651;28;20037;-68
2021/05/29 03:53:21;;;;;;;6.85;1.83;;;13.90;80.10;;;;;;5026826;28;20279;-68
2021/05/29 03:55:46;;;;;;;;;;;14.00;80.30;;;;;;5030440;28;20071;-67
2021/05/29 03:58:12;;;;;;;5.40;2.38;;;14.00;81.10;;;;;;5035094;28;19909;-68
2021/05/29 04:00:37;;;;;;;;;;;14.10;80.60;;;;;;5030556;28;20078;-66
2021/05/29 04:03:03;;;;;;;5.07;2.10;;;14.10;80.10;;;;;;5027413;28;19909;-67
2021/05/29 04:05:29;;;;;;;;;;;14.10;80.00;;;;;;5026544;28;20391;-67
2021/05/29 04:07:54;;;;;;;2.60;1.50;;;14.00;80.40;;;;;;5029775;28;19955;-68
2021/05/29 04:10:24;;;;;;;;;;;14.10;80.20;;;;;;5035130;28;20524;-68
2021/05/29 04:12:50;;;;;;;3.45;1.13;;;14.10;80.70;;;;;;5037384;28;19924;-68
2021/05/29 04:15:16;;;;;;;2.42;1.17;;;14.10;80.20;;;;;;5029306;28;20041;-69
2021/05/29 04:17:43;;;;;;;;;;;14.10;81.20;;;;;;5037137;28;20017;-68
2021/05/29 04:20:10;;;;;;;4.50;1.20;;;14.10;80.30;;;;;;5034566;28;19913;-68
2021/05/29 04:22:36;;;;;;;2.67;1.30;;;14.20;81.20;;;;;;5040327;28;20034;-68
2021/05/29 04:25:03;;;;;;;;;;;14.20;82.20;;;;;;5035001;28;20022;-68
2021/05/29 04:27:29;;;;;;;;;;;14.20;83.20;;;;;;5036775;28;20435;-68
2021/05/29 04:29:54;;;;;;;5.70;1.95;;;14.20;82.90;;;;;;5035500;28;19925;-68
2021/05/29 04:32:20;;;;;;;4.63;1.60;;;14.30;82.70;;;;;;5034261;28;20073;-68
2021/05/29 04:34:46;;;;;;;;;;;14.40;82.40;;;;;;5036453;28;20542;-68
2021/05/29 04:37:15;;;;;;;5.28;2.20;;;14.50;82.50;;;;;;5040659;28;20394;-69
2021/05/29 04:39:41;;;;;;;7.25;2.58;;;14.50;81.80;;;;;;5044643;28;20025;-67
2021/05/29 04:42:06;;;;;;;;;;;14.60;82.00;;;;;;5029686;28;20060;-68
2021/05/29 04:44:32;;;;;;;5.47;1.88;;;14.70;81.20;;;;;;5026359;28;19952;-68
2021/05/29 04:47:00;;;;;;;;;;;14.70;80.60;;;;;;5026961;28;20034;-68
2021/05/29 04:49:27;;;;;;;5.47;2.03;;;14.80;81.00;;;;;;5027166;28;19909;-68
2021/05/29 04:51:53;;;;;;;2.92;1.80;;;14.90;80.50;;;;;;5025271;28;20022;-69
2021/05/29 04:54:18;;;;;;;;;;;14.90;79.40;;;;;;5026385;28;20502;-68
2021/05/29 04:56:44;;;;;;;13.45;2.40;;;15.00;79.30;;;;;;5026164;28;19908;-68
2021/05/29 04:59:09;;;;;;;;;;;15.10;78.80;;;;;;5026878;28;20113;-68
2021/05/29 05:01:35;;;;;;;6.55;2.08;;;15.20;78.40;;;;;;5023983;28;20354;-68
2021/05/29 05:04:02;;;;;;;4.13;1.42;;;15.30;78.60;;;;;;5025000;28;20028;-68
2021/05/29 05:06:28;;;;;;;3.85;1.60;;;15.30;77.90;;;;;;5026171;28;20057;-67
2021/05/29 05:08:54;;;;;;;4.30;1.92;;;15.40;77.50;;;;;;5026045;28;20099;-69
2021/05/29 05:11:21;;;;;;;4.13;2.05;;;15.40;78.00;;;;;;5026615;28;20107;-68
2021/05/29 05:13:46;;;;;;;3.53;2.20;;;15.60;77.50;;;;;;5026074;28;20118;-68
2021/05/29 05:16:13;;;;;;;;;;;15.70;77.40;;;;;;5025590;28;20033;-69
2021/05/29 05:18:39;;;;;;;7.70;3.55;;;15.80;78.60;;;;;;5026044;28;19909;-68
2021/05/29 05:21:04;;;;;;;;;;;15.90;77.50;;;;;;5026634;28;20037;-68
2021/05/29 05:23:30;;;;;;;6.45;1.48;;;16.00;75.80;;;;;;5025952;28;19909;-69
2021/05/29 05:25:56;;;;;;;;;;;16.10;75.70;;;;;;5026253;28;20395;-68
2021/05/29 05:28:26;;;;;;;3.10;1.48;;;16.20;74.60;;;;;;5025892;28;19966;-67
2021/05/29 05:30:57;;;;;;;2.95;1.48;;;16.30;74.40;;;;;;5026212;28;20110;-69
2021/05/29 05:33:24;;;;;;;4.00;1.10;;;16.30;72.80;;;;;;5025977;28;20041;-69
2021/05/29 05:35:50;;;;;;;2.15;1.10;;;16.40;72.40;;;;;;5024375;28;20025;-68
2021/05/29 05:38:16;;;;;;;3.90;1.10;;;16.40;72.20;;;;;;5025736;28;20057;-68
2021/05/29 05:40:42;;;;;;;1.83;1.00;;;16.40;72.30;;;;;;5025816;28;20021;-67
2021/05/29 05:43:08;;;;;;;4.30;0.85;;;16.50;72.20;;;;;;5025649;28;20038;-68
2021/05/29 05:45:34;;;;;;;2.25;1.20;;;16.60;70.90;;;;;;5025984;28;20025;-67
2021/05/29 05:48:00;;;;;;;2.17;1.08;;;16.60;70.60;;;;;;5025995;28;20029;-68
2021/05/29 05:50:26;;;;;;;2.30;0.93;;;16.70;71.00;;;;;;5026018;28;20029;-68
2021/05/29 05:52:53;;;;;;;2.83;1.00;;;16.70;70.10;;;;;;5025715;28;20035;-67
2021/05/29 05:55:18;;;;;;;6.03;1.10;;;16.80;70.00;;;;;;5025926;28;20041;-68
2021/05/29 05:57:44;;;;;;;2.60;1.00;;;16.90;69.90;;;;;;5024831;28;20030;-69
2021/05/29 06:00:13;;;;;;;4.97;1.23;;;17.00;69.30;;;;;;5025611;28;20086;-68
2021/05/29 06:02:42;;;;;;;3.45;1.02;;;17.20;70.10;;;;;;5025717;28;20021;-69
2021/05/29 06:05:08;;;;;;;2.08;0.80;;;17.20;68.80;;;;;;5025960;28;20025;-68
2021/05/29 06:07:33;;;;;;;3.95;1.00;;;17.20;69.20;;;;;;5029126;28;20025;-69
2021/05/29 06:09:59;;;;;;;3.42;1.13;;;17.20;70.20;;;;;;5029555;28;20461;-70
2021/05/29 06:12:25;;;;;;;3.08;1.10;;;17.20;70.00;;;;;;5028161;28;20060;-69
2021/05/29 06:20:19;;;;;;;2.90;0.80;;;16.90;73.50;;;;;;5029351;28;20425;-70
2021/05/29 06:22:44;;;;;;;3.80;1.38;;;16.80;74.60;;;;;;5029097;28;20018;-70
2021/05/29 06:25:11;;;;;;;;;;;16.80;74.60;;;;;;5029387;28;20132;-70
2021/05/29 06:27:37;;;;;;;4.25;1.23;;;16.70;75.00;;;;;;5029241;28;19951;-70
2021/05/29 06:30:06;;;;;;;2.80;1.10;;;16.70;75.60;;;;;;5029127;28;20056;-70
2021/05/29 06:32:32;;;;;;;2.53;0.88;;;16.80;75.70;;;;;;5027872;28;20091;-67
2021/05/29 06:34:57;;;;;;;2.67;1.00;;;16.90;75.70;;;;;;5028587;28;20037;-68
2021/05/29 06:37:23;;;;;;;4.57;0.93;;;17.00;75.30;;;;;;5028286;28;20026;-68
2021/05/29 06:39:48;;;;;;;1.60;0.77;;;17.10;74.70;;;;;;5027472;28;20029;-69
2021/05/29 06:42:14;;;;;;;3.65;0.98;;;17.30;73.90;;;;;;5027923;28;20061;-68
2021/05/29 06:44:40;;;;;;;2.78;1.10;;;17.30;72.70;;;;;;5028945;28;20053;-70
2021/05/29 06:47:06;;;;;;;3.33;0.82;;;17.40;72.10;;;;;;5028962;28;20104;-67
2021/05/29 06:49:34;;;;;;;4.05;0.90;;;17.30;70.80;;;;;;5028462;28;20029;-68
2021/05/29 06:52:07;;;;;;;2.17;1.00;;;17.30;70.40;;;;;;5028460;28;20041;-68
2021/05/29 06:59:55;;;;;;;1.52;0.85;;;17.20;70.60;;;;;;5028478;28;20036;-68
2021/05/29 07:02:21;;;;;;;3.08;0.80;;;17.30;69.90;;;;;;5028840;28;20021;-71
2021/05/29 07:04:47;;;;;;;3.88;0.82;;;17.50;69.20;;;;;;5028443;28;20772;-68
2021/05/29 07:07:13;;;;;;;2.75;1.20;;;17.60;68.60;;;;;;5026433;28;20502;-69
2021/05/29 07:09:38;;;;;;;2.28;1.00;;;17.90;67.90;;;;;;5026905;28;20037;-69
2021/05/29 07:12:04;;;;;;;3.00;1.00;;;18.20;67.70;;;;;;5028087;28;20025;-68
2021/05/29 07:14:30;;;;;;;3.38;1.15;;;18.40;65.90;;;;;;5028317;28;20124;-68
2021/05/29 07:16:56;;;;;;;2.03;0.98;;;18.60;65.00;;;;;;5027728;28;20401;-68
2021/05/29 07:19:23;;;;;;;2.40;0.90;;;18.70;64.30;;;;;;5027143;28;20611;-68
2021/05/29 07:21:50;;;;;;;3.05;1.10;;;18.80;64.00;;;;;;5027507;28;20021;-68
2021/05/29 07:24:20;;;;;;;3.40;1.40;;;19.20;63.20;;;;;;5028314;28;20091;-69
2021/05/29 07:26:46;;;;;;;1.52;0.90;;;20.20;61.90;;;;;;5028081;28;20273;-70
2021/05/29 07:29:13;;;;;;;5.47;1.05;;;21.40;57.90;;;;;;5027749;28;20057;-68
2021/05/29 07:31:39;;;;;;;2.65;1.10;;;22.00;53.70;;;;;;5026981;28;20033;-68
2021/05/29 07:34:04;;;;;;;3.03;1.05;;;22.70;50.90;;;;;;5028028;28;20094;-69
2021/05/29 07:36:30;;;;;;;6.47;1.67;;;23.60;48.40;;;;;;5027251;28;20053;-70
2021/05/29 07:38:56;;;;;;;2.33;1.23;;;24.40;44.30;;;;;;5026695;28;20041;-67
2021/05/29 07:41:21;;;;;;;1.88;1.10;;;25.20;41.80;;;;;;5027525;28;20087;-67
2021/05/29 07:43:48;;;;;;;3.33;1.30;;;25.90;40.60;;;;;;5027829;28;20037;-67
2021/05/29 07:46:16;;;;;;;4.55;1.33;;;26.60;39.70;;;;;;5027275;28;20072;-67
2021/05/29 07:48:41;;;;;;;3.17;1.08;;;27.10;38.10;;;;;;5027821;28;20095;-67
2021/05/29 07:51:07;;;;;;;1.70;1.00;;;27.20;34.50;;;;;;5027429;28;20490;-66
2021/05/29 07:53:43;;;;;;;1.83;1.10;;;27.10;34.90;;;;;;5027183;28;20060;-66
2021/05/29 07:56:15;;;;;;;3.47;1.05;;;26.80;34.90;;;;;;5027374;28;20506;-67
2021/05/29 07:58:41;;;;;;;4.63;1.38;;;27.00;34.70;;;;;;5026090;28;20414;-66
2021/05/29 08:01:09;;;;;;;2.85;1.15;;;27.20;34.60;;;;;;5027590;28;20105;-66
2021/05/29 08:03:35;;;;;;;1.50;1.00;;;27.20;35.50;;;;;;5027633;28;20104;-66
2021/05/29 08:06:04;;;;;;;2.13;0.98;;;27.20;32.80;;;;;;5026732;28;20109;-66
2021/05/29 08:08:29;;;;;;;2.35;1.00;;;27.10;32.80;;;;;;5027066;28;20026;-66
2021/05/29 08:10:57;;;;;;;10.52;1.45;;;26.90;32.40;;;;;;5028588;28;20035;-66
2021/05/29 08:13:23;;;;;;;2.20;1.00;;;26.70;32.70;;;;;;5030591;28;20033;-66
2021/05/29 08:15:49;;;;;;;3.00;0.82;;;26.60;34.20;;;;;;5026156;28;20045;-65
2021/05/29 08:18:16;;;;;;;2.22;0.90;;;26.80;34.50;;;;;;5027184;28;20375;-65
2021/05/29 08:20:44;;;;;;;1.75;0.88;;;27.10;34.00;;;;;;5026979;28;20047;-66
2021/05/29 08:23:10;;;;;;;2.78;1.08;;;27.20;33.10;;;;;;5027027;28;20080;-66
2021/05/29 08:25:36;;;;;;;3.92;1.02;;;27.30;31.70;;;;;;5027033;28;20029;-66
2021/05/29 08:28:02;;;;;;;3.95;0.90;;;27.20;32.60;;;;;;5025908;28;20037;-67
2021/05/29 08:30:28;;;;;;;2.42;0.80;;;27.20;32.50;;;;;;5026971;28;20041;-66
2021/05/29 08:32:54;;;;;;;4.10;0.80;;;27.20;32.80;;;;;;5026914;28;20033;-66
2021/05/29 08:35:20;;;;;;;3.22;0.90;;;27.10;32.60;;;;;;5026137;28;20026;-66
2021/05/29 08:37:46;;;;;;;3.97;0.70;;;26.90;32.90;;;;;;5027017;28;20217;-66
2021/05/29 08:40:14;;;;;;;2.72;0.95;;;26.20;33.90;;;;;;5026730;28;20616;-66
2021/05/29 08:42:44;;;;;;;2.10;1.00;;;25.90;33.50;;;;;;5026848;28;20125;-66
2021/05/29 08:45:12;;;;;;;1.92;0.90;;;25.70;34.70;;;;;;5024945;28;20075;-66
2021/05/29 08:47:37;;;;;;;1.63;0.70;;;25.60;35.70;;;;;;5026684;28;20052;-66
2021/05/29 08:50:07;;;;;;;0.77;0.47;;;26.00;34.80;;;;;;5026313;28;20030;-66
2021/05/29 08:52:36;;;;;;;3.45;0.70;;;26.40;33.60;;;;;;5025951;28;20033;-66
2021/05/29 08:55:08;;;;;;;1.20;0.80;;;26.60;34.30;;;;;;5025650;28;20033;-65
2021/05/29 08:57:35;;;;;;;1.23;0.68;;;26.70;31.80;;;;;;5025335;28;20131;-66
2021/05/29 09:00:00;;;;;;;1.23;0.80;;;26.70;33.20;;;;;;5025545;28;20040;-66
2021/05/29 09:02:30;;;;;;;1.05;0.52;;;26.80;31.30;;;;;;5025337;28;20050;-65
2021/05/29 09:05:04;;;;;;;2.63;0.73;;;26.90;30.90;;;;;;5025414;28;20045;-68
2021/05/29 09:07:30;;;;;;;1.55;0.63;;;26.50;31.40;;;;;;5025434;28;20111;-66
2021/05/29 09:10:18;;;;;;;1.25;0.40;;;26.40;32.40;;;;;;5037459;28;20123;-66
2021/05/29 09:13:02;;;;;;;2.88;0.65;;;26.30;33.80;;;;;;5044712;28;20029;-66
2021/05/29 09:15:46;;;;;;;0.60;0.50;;;26.40;34.00;;;;;;5046137;28;20048;-67
2021/05/29 09:18:40;;;;;;;4.13;0.80;;;26.60;33.30;;;;;;5046399;28;20032;-66
2021/05/29 09:21:25;;;;;;;2.22;0.95;;;26.50;33.30;;;;;;5045752;28;20029;-66
2021/05/29 09:23:58;;;;;;;1.95;1.00;;;26.60;33.40;;;;;;5045968;28;20035;-66
2021/05/29 09:26:45;;;;;;;1.40;0.98;;;27.00;34.50;;;;;;5046071;28;20036;-66
2021/05/29 09:29:23;;;;;;;1.98;1.00;;;27.40;32.50;;;;;;5045409;28;20623;-67
2021/05/29 09:32:00;;;;;;;1.05;0.75;;;27.80;32.10;;;;;;5044677;28;20036;-67
2021/05/29 09:34:36;;;;;;;1.20;0.80;;;28.00;32.90;;;;;;5045466;28;20041;-66
2021/05/29 09:37:28;;;;;;;1.17;0.63;;;27.80;30.90;;;;;;5045937;28;20021;-67
2021/05/29 09:39:59;;;;;;;1.45;0.73;;;27.30;30.20;;;;;;5045730;28;20120;-66
2021/05/29 09:42:37;;;;;;;2.78;0.90;;;26.70;31.60;;;;;;5049923;28;20100;-68
2021/05/29 09:45:25;;;;;;;2.03;0.80;;;26.00;33.20;;;;;;5049525;28;20039;-68
2021/05/29 09:48:17;;;;;;;2.33;0.70;;;25.20;35.00;;;;;;5049713;28;20112;-66
2021/05/29 09:51:02;;;;;;;6.35;0.88;;;24.30;37.60;;;;;;5049566;28;20108;-66
2021/05/29 09:53:31;;;;;;;5.50;0.93;;;24.20;38.10;;;;;;5049794;28;20045;-66
2021/05/29 09:55:57;;;;;;;1.70;1.10;;;24.40;38.50;;;;;;5048037;28;20078;-67
2021/05/29 09:58:58;;;;;;;1.67;0.88;;;24.90;38.30;;;;;;5049562;28;20488;-65
2021/05/29 10:01:36;;;;;;;1.13;0.60;;;25.30;36.50;;;;;;5048146;28;20460;-66
2021/05/29 10:04:03;;;;;;;1.67;0.80;;;25.30;37.30;;;;;;5048138;28;20566;-66
2021/05/29 10:06:28;;;;;;;5.28;1.05;;;25.10;37.10;;;;;;5049489;28;20032;-66
2021/05/29 10:08:54;;;;;;;1.75;1.02;;;24.70;37.70;;;;;;5049698;28;20029;-66
2021/05/29 10:11:20;;;;;;;2.20;0.70;;;24.20;39.90;;;;;;5047838;28;20043;-66
2021/05/29 10:13:46;;;;;;;2.15;1.20;;;23.60;41.10;;;;;;5048311;28;20033;-65
2021/05/29 10:16:14;;;;;;;7.57;1.02;;;23.10;42.10;;;;;;5049361;28;20029;-65
2021/05/29 10:18:48;;;;;;;2.83;0.85;;;22.80;44.00;;;;;;5048776;28;20075;-66
2021/05/29 10:21:14;;;;;;;6.30;0.80;;;22.60;46.60;;;;;;5049565;28;20040;-66
2021/05/29 10:23:41;;;;;;;2.58;0.82;;;22.70;45.20;;;;;;5049214;28;20035;-65
2021/05/29 10:26:08;;;;;;;1.10;0.68;;;22.80;43.50;;;;;;5048170;28;20064;-65
2021/05/29 10:28:34;;;;;;;2.92;1.23;;;22.70;43.80;;;;;;5048775;28;20049;-65
2021/05/29 10:31:00;;;;;;;3.67;0.93;;;22.70;43.40;;;;;;5048841;28;20120;-66
2021/05/29 10:33:25;;;;;;;2.75;0.70;;;22.70;42.40;;;;;;5049332;28;20215;-67
2021/05/29 10:35:51;;;;;;;1.67;0.80;;;22.80;42.40;;;;;;5048674;28;20100;-67
2021/05/29 10:38:20;;;;;;;1.17;0.80;;;23.20;43.10;;;;;;5049115;28;20401;-66
2021/05/29 10:40:48;;;;;;;3.90;0.63;;;23.50;42.00;;;;;;5048541;28;20019;-67
2021/05/29 10:43:19;;;;;;;1.42;0.63;;;23.90;39.70;;;;;;5048993;28;20025;-67
2021/05/29 10:45:51;;;;;;;2.13;0.90;;;24.10;40.10;;;;;;5048529;28;20025;-67
2021/05/29 10:48:17;;;;;;;2.65;0.75;;;24.30;40.70;;;;;;5048628;28;20035;-67
2021/05/29 10:50:56;;;;;;;;;;;;;;;;;;;;;
2021/05/29 10:53:49;;;;;;;2.13;0.65;;;24.60;37.10;;;;;;5048504;28;20426;-67
2021/05/29 10:56:21;;;;;;;0.90;0.50;;;24.50;37.10;;;;;;5048380;28;20108;-66
2021/05/29 10:59:12;;;;;;;1.33;0.60;;;24.50;37.30;;;;;;5048411;28;20590;-66
2021/05/29 11:01:40;;;;;;;1.63;0.75;;;24.50;36.10;;;;;;5048652;28;20036;-67
2021/05/29 11:04:14;;;;;;;1.55;0.60;;;24.40;37.30;;;;;;5047805;28;20467;-66
2021/05/29 11:06:57;;;;;;;3.38;0.60;;;24.30;36.70;;;;;;5048211;28;20029;-66
2021/05/29 11:09:26;;;;;;;2.28;0.80;;;24.30;38.40;;;;;;5048365;28;20032;-66
2021/05/29 11:11:56;;;;;;;5.90;1.08;;;24.50;38.70;;;;;;5042564;28;20515;-65
2021/05/29 11:14:41;;;;;;;3.67;0.95;;;24.60;38.20;;;;;;5027968;28;20034;-66
2021/05/29 11:17:09;;;;;;;3.70;0.65;;;24.30;39.30;;;;;;5035563;28;20056;-66
2021/05/29 11:19:37;;;;;;;6.40;0.65;;;23.90;39.10;;;;;;5036833;28;20104;-66
2021/05/29 11:22:16;;;;;;;2.60;0.88;;;23.70;38.70;;;;;;5036728;28;20116;-67
2021/05/29 11:24:48;;;;;;;2.78;0.60;;;23.40;40.00;;;;;;5037486;28;20028;-66
2021/05/29 11:27:23;;;;;;;2.17;0.50;;;23.10;40.60;;;;;;5032620;28;20033;-66
2021/05/29 11:30:09;;;;;;;1.65;0.68;;;22.70;40.70;;;;;;5034808;28;20049;-66
2021/05/29 11:35:18;;;;;;;1.80;1.00;;;21.90;41.40;;;;;;5027635;28;20685;-66
2021/05/29 11:40:43;;;;;;;4.15;0.90;;;21.70;43.50;;;;;;5045524;28;20167;-67
2021/05/29 11:43:10;;;;;;;3.75;1.40;;;21.50;44.70;;;;;;5046568;28;20090;-65
2021/05/29 11:45:36;;;;;;;1.10;0.60;;;21.60;44.40;;;;;;5048280;28;20074;-66
2021/05/29 11:48:03;;;;;;;3.80;0.50;;;21.60;43.70;;;;;;5046905;28;20388;-66
2021/05/29 11:50:29;;;;;;;0.95;0.60;;;21.60;43.50;;;;;;5046707;28;20135;-66
2021/05/29 11:52:55;;;;;;;1.75;0.40;;;21.70;44.00;;;;;;5047565;28;20527;-66
2021/05/29 11:55:21;;;;;;;1.02;0.40;;;21.80;42.60;;;;;;5046206;28;20342;-65
2021/05/29 11:58:04;;;;;;;1.75;0.60;;;21.60;43.00;;;;;;5047327;28;20493;-66
2021/05/29 12:00:30;;;;;;;0.88;0.50;;;21.60;43.60;;;;;;5046989;28;20047;-66
2021/05/29 12:02:56;;;;;;;0.65;0.40;;;21.80;41.80;;;;;;5045781;28;20088;-66
2021/05/29 12:05:23;;;;;;;0.50;0.40;;;21.90;42.30;;;;;;5046430;28;20033;-66
2021/05/29 12:08:05;;;;;;;1.58;0.50;;;21.90;42.50;;;;;;5047729;28;20033;-66
2021/05/29 12:10:50;;;;;;;0.73;0.50;;;21.90;41.40;;;;;;5047309;28;20508;-66
2021/05/29 12:13:30;;;;;;;0.70;0.30;;;22.10;41.30;;;;;;5046112;28;20043;-66
2021/05/29 12:16:04;;;;;;;3.80;0.50;;;22.10;39.60;;;;;;5038301;28;20036;-65
2021/05/29 12:18:40;;;;;;;0.63;0.43;;;22.20;39.50;;;;;;5043211;28;20036;-66
2021/05/29 12:21:07;;;;;;;1.00;0.40;;;22.30;39.20;;;;;;5043978;28;20393;-66
2021/05/29 12:23:55;;;;;;;0.68;0.50;;;22.30;39.50;;;;;;5039776;28;20032;-66
2021/05/29 12:26:21;;;;;;;1.75;0.70;;;22.30;38.90;;;;;;5035513;28;20030;-65
2021/05/29 12:28:48;;;;;;;0.68;0.35;;;22.20;39.30;;;;;;5034763;28;20045;-67
2021/05/29 12:31:13;;;;;;;2.45;0.52;;;22.30;39.60;;;;;;5034635;28;20032;-66
2021/05/29 12:33:39;;;;;;;1.13;0.70;;;22.30;38.70;;;;;;5040948;28;20130;-66
2021/05/29 12:36:11;;;;;;;1.77;0.73;;;22.40;39.40;;;;;;5046145;28;20048;-66
2021/05/29 12:38:50;;;;;;;1.63;0.77;;;22.60;39.80;;;;;;5045944;28;20028;-65
2021/05/29 12:41:21;;;;;;;0.63;0.40;;;22.80;39.20;;;;;;5031064;28;20375;-67
2021/05/29 12:44:09;;;;;;;1.40;0.63;;;23.00;38.70;;;;;;5026475;28;20048;-67
2021/05/29 12:46:35;;;;;;;1.85;0.60;;;23.10;38.70;;;;;;5026818;28;20057;-67
2021/05/29 12:49:10;;;;;;;1.75;1.00;;;22.90;37.60;;;;;;5026221;28;20080;-66
2021/05/29 12:51:52;;;;;;;1.02;0.50;;;22.60;38.00;;;;;;5026287;28;20443;-68
2021/05/29 12:54:18;;;;;;;1.17;0.60;;;22.70;39.80;;;;;;5024943;28;20489;-67
2021/05/29 12:56:53;;;;;;;2.97;0.80;;;22.60;40.00;;;;;;5026254;28;20465;-67
2021/05/29 12:59:23;;;;;;;6.40;1.20;;;22.40;40.50;;;;;;5026514;28;20031;-65
2021/05/29 13:12:57;;;;;;;4.47;0.85;;;21.50;40.50;;;;;;5026102;28;20048;-66
2021/05/29 13:15:23;;;;;;;5.00;0.65;;;21.20;39.70;;;;;;5028370;28;20116;-66
2021/05/29 13:17:49;;;;;;;2.63;0.75;;;21.00;41.50;;;;;;5033845;28;20488;-66
2021/05/29 13:20:18;;;;;;;2.35;0.70;;;21.00;44.30;;;;;;5035279;28;20028;-66
2021/05/29 13:22:44;;;;;;;2.38;0.50;;;20.90;46.20;;;;;;5035275;28;20046;-65
2021/05/29 13:25:12;;;;;;;1.48;0.60;;;20.90;45.50;;;;;;5033978;28;20067;-66
2021/05/29 13:27:54;;;;;;;1.60;0.60;;;20.90;45.60;;;;;;5035070;28;20017;-66
2021/05/29 13:30:19;;;;;;;1.33;0.70;;;20.80;44.40;;;;;;5034090;28;20048;-65
2021/05/29 13:32:49;;;;;;;0.88;0.50;;;20.80;44.20;;;;;;5035273;28;20401;-66
2021/05/29 13:35:18;;;;;;;1.38;0.60;;;20.90;45.00;;;;;;5043132;28;20359;-65